createdAt,value
2022-09-07T00:03:02.891Z,15.61
2022-09-07T00:06:08.308Z,15.57
2022-09-07T00:09:10.818Z,15.56
2022-09-07T00:12:13.654Z,15.54
2022-09-07T00:15:16.667Z,15.53
2022-09-07T00:18:19.684Z,15.48
2022-09-07T00:21:22.418Z,15.44
2022-09-07T00:24:25.405Z,15.40
2022-09-07T00:27:28.004Z,15.45
2022-09-07T00:30:30.886Z,15.47
2022-09-07T00:33:33.400Z,15.36
2022-09-07T00:36:36.235Z,15.40
2022-09-07T00:39:38.898Z,15.35
2022-09-07T00:42:41.767Z,15.33
2022-09-07T00:45:44.240Z,15.30
2022-09-07T00:48:53.373Z,15.29
2022-09-07T00:51:59.412Z,15.24
2022-09-07T00:55:06.741Z,15.27
2022-09-07T00:58:09.557Z,15.21
2022-09-07T01:01:12.895Z,15.21
2022-09-07T01:04:15.713Z,15.16
2022-09-07T01:07:19.147Z,15.18
2022-09-07T01:10:28.104Z,15.17
2022-09-07T01:13:31.247Z,15.10
2022-09-07T01:16:46.018Z,15.07
2022-09-07T01:20:00.598Z,15.09
2022-09-07T01:23:33.637Z,15.04
2022-09-07T01:26:39.374Z,15.07
2022-09-07T01:29:47.720Z,15.02
2022-09-07T01:33:32.023Z,14.97
2022-09-07T01:37:18.084Z,14.95
2022-09-07T01:40:41.211Z,14.91
2022-09-07T01:43:58.842Z,14.89
2022-09-07T01:47:07.003Z,14.86
2022-09-07T01:50:17.657Z,14.80
2022-09-07T01:53:28.298Z,14.78
2022-09-07T01:56:37.562Z,14.77
2022-09-07T01:59:51.928Z,14.76
2022-09-07T02:03:14.391Z,14.69
2022-09-07T02:06:25.420Z,14.70
2022-09-07T02:09:38.507Z,14.69
2022-09-07T02:12:47.517Z,14.66
2022-09-07T02:16:01.561Z,14.67
2022-09-07T02:19:14.239Z,14.65
2022-09-07T02:22:21.356Z,14.61
2022-09-07T02:25:26.975Z,14.59
2022-09-07T02:28:34.509Z,14.57
2022-09-07T02:31:37.316Z,14.58
2022-09-07T02:34:39.893Z,14.57
2022-09-07T02:37:43.962Z,14.53
2022-09-07T02:40:54.673Z,14.51
2022-09-07T02:43:57.987Z,14.53
2022-09-07T02:47:15.635Z,14.48
2022-09-07T02:50:32.939Z,14.47
2022-09-07T02:53:41.285Z,14.44
2022-09-07T02:56:51.979Z,14.44
2022-09-07T03:00:34.524Z,14.47
2022-09-07T03:03:58.275Z,14.45
2022-09-07T03:07:17.770Z,14.51
2022-09-07T03:10:20.861Z,14.48
2022-09-07T03:13:28.499Z,14.45
2022-09-07T03:16:31.300Z,14.44
2022-09-07T03:19:33.794Z,14.43
2022-09-07T03:22:36.619Z,14.39
2022-09-07T03:25:39.165Z,14.37
2022-09-07T03:28:42.274Z,14.40
2022-09-07T03:31:44.935Z,14.43
2022-09-07T03:34:48.612Z,14.41
2022-09-07T03:37:51.215Z,14.34
2022-09-07T03:41:02.390Z,14.39
2022-09-07T03:44:06.016Z,14.37
2022-09-07T03:47:08.820Z,14.33
2022-09-07T03:50:11.404Z,14.34
2022-09-07T03:53:14.195Z,14.29
2022-09-07T03:56:19.474Z,14.29
2022-09-07T03:59:22.235Z,14.27
2022-09-07T04:02:24.839Z,14.27
2022-09-07T04:05:27.687Z,14.24
2022-09-07T04:08:32.575Z,14.30
2022-09-07T04:11:35.858Z,14.26
2022-09-07T04:14:38.326Z,14.23
2022-09-07T04:17:41.121Z,14.24
2022-09-07T04:20:44.269Z,14.23
2022-09-07T04:23:47.457Z,14.27
2022-09-07T04:26:50.010Z,14.24
2022-09-07T04:29:52.802Z,14.27
2022-09-07T04:32:55.349Z,14.28
2022-09-07T04:36:00.924Z,14.28
2022-09-07T04:39:04.893Z,14.32
2022-09-07T04:42:07.745Z,14.36
2022-09-07T04:45:10.609Z,14.37
2022-09-07T04:48:13.402Z,14.41
2022-09-07T04:51:16.338Z,14.41
2022-09-07T04:54:20.108Z,14.44
2022-09-07T04:57:25.905Z,14.47
2022-09-07T05:00:29.013Z,14.49
2022-09-07T05:03:33.058Z,14.55
2022-09-07T05:06:35.903Z,14.56
2022-09-07T05:09:38.514Z,14.61
2022-09-07T05:12:41.287Z,14.67
2022-09-07T05:15:43.935Z,14.72
2022-09-07T05:18:55.439Z,14.80
2022-09-07T05:21:58.540Z,14.87
2022-09-07T05:25:01.310Z,14.93
2022-09-07T05:28:04.261Z,14.96
2022-09-07T05:31:19.451Z,15.06
2022-09-07T05:34:30.940Z,15.22
2022-09-07T05:37:34.281Z,15.35
2022-09-07T05:40:40.539Z,15.76
2022-09-07T05:47:07.139Z,16.64
2022-09-07T05:50:10.757Z,16.59
2022-09-07T05:53:13.307Z,16.40
2022-09-07T05:56:16.396Z,16.32
2022-09-07T05:59:18.924Z,16.32
2022-09-07T06:02:21.882Z,16.31
2022-09-07T06:05:24.893Z,16.47
2022-09-07T06:08:27.498Z,16.55
2022-09-07T06:11:30.383Z,16.60
2022-09-07T06:14:35.696Z,16.75
2022-09-07T06:17:38.619Z,16.86
2022-09-07T06:20:41.122Z,16.87
2022-09-07T06:23:44.676Z,17.05
2022-09-07T06:26:47.253Z,17.20
2022-09-07T06:29:50.044Z,17.24
2022-09-07T06:32:52.903Z,17.41
2022-09-07T06:36:00.513Z,17.43
2022-09-07T06:39:03.100Z,17.53
2022-09-07T06:42:06.501Z,17.78
2022-09-07T06:45:17.024Z,17.83
2022-09-07T06:48:19.909Z,17.85
2022-09-07T06:51:26.764Z,17.99
2022-09-07T06:57:53.423Z,18.46
2022-09-07T07:00:56.671Z,18.62
2022-09-07T07:04:00.014Z,18.98
2022-09-07T07:07:02.784Z,19.41
2022-09-07T07:10:05.873Z,20.23
2022-09-07T07:13:08.887Z,20.56
2022-09-07T07:16:13.351Z,20.54
2022-09-07T07:19:16.636Z,20.45
2022-09-07T07:22:43.074Z,20.13
2022-09-07T07:25:42.315Z,20.40
2022-09-07T07:29:03.070Z,20.79
2022-09-07T07:32:06.776Z,21.38
2022-09-07T07:35:10.180Z,22.13
2022-09-07T07:48:21.682Z,24.54
2022-09-07T07:51:24.934Z,25.52
2022-09-07T07:54:27.379Z,26.20
2022-09-07T07:57:30.467Z,25.90
2022-09-07T08:00:53.046Z,26.59
2022-09-07T08:03:55.860Z,27.33
2022-09-07T08:06:58.332Z,27.65
2022-09-07T08:10:01.180Z,28.59
2022-09-07T08:13:03.981Z,28.48
2022-09-07T08:16:08.074Z,27.83
2022-09-07T08:19:10.593Z,27.39
2022-09-07T08:22:13.392Z,27.67
2022-09-07T08:25:15.920Z,28.09
2022-09-07T08:28:19.756Z,28.83
2022-09-07T08:31:23.210Z,28.98
2022-09-07T08:34:27.187Z,27.96
2022-09-07T08:37:29.970Z,28.29
2022-09-07T08:40:36.514Z,28.78
2022-09-07T08:43:50.089Z,28.99
2022-09-07T08:46:56.748Z,28.31
2022-09-07T08:50:12.022Z,30.08
2022-09-07T08:53:17.032Z,29.90
2022-09-07T08:56:26.084Z,31.06
2022-09-07T08:59:40.132Z,27.66
2022-09-07T09:02:45.530Z,31.50
2022-09-07T09:06:01.704Z,31.14
2022-09-07T09:09:19.384Z,31.37
2022-09-07T09:12:29.183Z,30.31
2022-09-07T09:15:58.919Z,30.88
2022-09-07T09:19:47.342Z,33.09
2022-09-07T09:22:52.253Z,33.22
2022-09-07T09:26:00.149Z,31.48
2022-09-07T09:29:20.929Z,31.59
2022-09-07T09:32:45.474Z,31.18
2022-09-07T09:35:50.970Z,32.52
2022-09-07T09:38:53.828Z,33.00
2022-09-07T09:41:59.091Z,33.09
2022-09-07T09:45:22.044Z,33.12
2022-09-07T09:48:32.862Z,31.99
2022-09-07T09:55:36.392Z,33.02
2022-09-07T10:05:39.663Z,31.74
2022-09-07T10:08:54.878Z,32.08
2022-09-07T10:12:07.254Z,33.18
2022-09-07T10:15:41.324Z,32.68
2022-09-07T10:18:58.761Z,33.85
2022-09-07T10:22:04.789Z,33.64
2022-09-07T10:25:32.540Z,33.68
2022-09-07T10:32:12.749Z,33.70
2022-09-07T10:35:20.683Z,34.14
2022-09-07T10:38:25.089Z,35.96
2022-09-07T10:41:37.323Z,35.18
2022-09-07T10:44:55.749Z,34.10
2022-09-07T10:48:32.464Z,35.22
2022-09-07T10:51:51.166Z,33.17
2022-09-07T10:54:56.501Z,33.92
2022-09-07T11:02:10.270Z,35.25
2022-09-07T11:05:38.517Z,34.38
2022-09-07T11:12:24.909Z,32.75
2022-09-07T11:15:40.313Z,34.36
2022-09-07T11:22:47.232Z,33.01
2022-09-07T11:26:08.871Z,33.31
2022-09-07T11:29:34.940Z,33.32
2022-09-07T11:32:38.748Z,33.25
2022-09-07T11:35:53.829Z,33.20
2022-09-07T11:39:07.782Z,33.02
2022-09-07T11:42:48.803Z,31.68
2022-09-07T11:45:55.386Z,31.93
2022-09-07T11:48:58.946Z,32.09
2022-09-07T11:52:06.160Z,32.58
2022-09-07T11:55:12.763Z,32.51
2022-09-07T11:58:37.979Z,32.03
2022-09-07T12:02:04.052Z,32.13
2022-09-07T12:05:38.423Z,32.33
2022-09-07T12:08:56.018Z,32.43
2022-09-07T12:12:42.188Z,31.71
2022-09-07T12:15:57.881Z,32.29
2022-09-07T12:19:12.919Z,30.57
2022-09-07T12:22:22.526Z,28.59
2022-09-07T12:25:25.903Z,28.96
2022-09-07T12:28:34.261Z,28.50
2022-09-07T12:31:59.166Z,28.25
2022-09-07T12:35:02.385Z,28.42
2022-09-07T12:38:30.815Z,28.34
2022-09-07T12:41:47.432Z,28.48
2022-09-07T12:45:35.819Z,28.51
2022-09-07T12:48:48.745Z,28.78
2022-09-07T12:52:15.121Z,28.15
2022-09-07T12:56:15.138Z,28.00
2022-09-07T12:59:30.871Z,27.85
2022-09-07T13:02:58.632Z,28.07
2022-09-07T13:10:00.354Z,28.15
2022-09-07T13:13:16.790Z,27.41
2022-09-07T13:16:30.714Z,27.66
2022-09-07T13:19:57.033Z,27.61
2022-09-07T13:23:23.817Z,27.50
2022-09-07T13:26:58.548Z,27.34
2022-09-07T13:30:07.280Z,27.20
2022-09-07T13:33:26.012Z,27.22
2022-09-07T13:36:45.684Z,26.95
2022-09-07T13:39:49.724Z,26.94
2022-09-07T13:42:52.717Z,26.73
2022-09-07T13:45:55.565Z,26.69
2022-09-07T13:49:06.958Z,26.69
2022-09-07T13:52:15.682Z,26.69
2022-09-07T13:55:46.588Z,26.73
2022-09-07T13:58:52.125Z,26.78
2022-09-07T14:01:55.812Z,26.83
2022-09-07T14:05:00.579Z,26.71
2022-09-07T14:08:03.426Z,26.70
2022-09-07T14:11:20.782Z,26.64
2022-09-07T14:14:29.567Z,26.46
2022-09-07T14:17:32.338Z,26.45
2022-09-07T14:20:40.552Z,26.53
2022-09-07T14:23:43.240Z,26.55
2022-09-07T14:26:48.257Z,26.64
2022-09-07T14:29:51.173Z,26.73
2022-09-07T14:33:00.763Z,26.77
2022-09-07T14:36:23.343Z,26.70
2022-09-07T14:39:29.821Z,26.83
2022-09-07T14:42:32.670Z,26.76
2022-09-07T14:45:36.221Z,26.75
2022-09-07T14:48:40.556Z,26.60
2022-09-07T14:51:44.647Z,26.58
2022-09-07T14:54:51.483Z,26.62
2022-09-07T14:58:15.902Z,26.56
2022-09-07T15:01:38.151Z,26.67
2022-09-07T15:04:40.871Z,26.65
2022-09-07T15:07:47.961Z,26.60
2022-09-07T15:14:25.288Z,26.39
2022-09-07T15:17:48.172Z,26.22
2022-09-07T15:20:51.243Z,26.17
2022-09-07T15:23:57.109Z,26.13
2022-09-07T15:27:03.509Z,26.14
2022-09-07T15:30:06.847Z,26.06
2022-09-07T15:33:11.475Z,26.17
2022-09-07T15:36:15.842Z,26.05
2022-09-07T15:39:21.265Z,25.99
2022-09-07T15:45:48.117Z,25.84
2022-09-07T15:48:53.678Z,25.81
2022-09-07T15:52:05.098Z,25.71
2022-09-07T15:55:08.846Z,25.61
2022-09-07T15:58:12.552Z,25.48
2022-09-07T16:04:38.788Z,25.44
2022-09-07T16:11:18.537Z,25.17
2022-09-07T16:14:21.466Z,24.99
2022-09-07T16:17:33.991Z,24.78
2022-09-07T16:20:38.863Z,24.70
2022-09-07T16:23:43.964Z,24.58
2022-09-07T16:26:46.412Z,24.42
2022-09-07T16:29:49.262Z,24.30
2022-09-07T16:32:51.830Z,24.20
2022-09-07T16:36:02.926Z,24.09
2022-09-07T16:39:05.395Z,24.02
2022-09-07T16:42:08.948Z,23.91
2022-09-07T16:48:35.790Z,23.71
2022-09-07T16:51:39.696Z,23.59
2022-09-07T16:54:42.856Z,23.45
2022-09-07T17:01:10.281Z,23.22
2022-09-07T17:04:13.208Z,23.13
2022-09-07T17:07:15.905Z,23.02
2022-09-07T17:10:18.392Z,22.92
2022-09-07T17:13:21.109Z,22.82
2022-09-07T17:16:26.445Z,22.70
2022-09-07T17:19:29.770Z,22.62
2022-09-07T17:22:32.636Z,22.58
2022-09-07T17:25:35.385Z,22.48
2022-09-07T17:28:38.664Z,22.38
2022-09-07T17:35:04.539Z,22.11
2022-09-07T17:41:33.887Z,21.90
2022-09-07T17:44:38.422Z,21.86
2022-09-07T17:47:41.040Z,21.81
2022-09-07T17:50:43.764Z,21.75
2022-09-07T17:53:46.332Z,21.72
2022-09-07T17:56:49.109Z,21.68
2022-09-07T18:03:14.375Z,21.61
2022-09-07T18:06:16.804Z,21.53
2022-09-07T18:09:19.972Z,21.47
2022-09-07T18:12:22.760Z,21.39
2022-09-07T18:15:25.534Z,21.26
2022-09-07T18:18:28.473Z,21.15
2022-09-07T18:21:33.420Z,21.06
2022-09-07T18:24:36.951Z,20.99
2022-09-07T18:27:40.446Z,20.89
2022-09-07T18:30:43.097Z,20.83
2022-09-07T18:33:47.458Z,20.78
2022-09-07T18:36:50.304Z,20.54
2022-09-07T18:39:54.363Z,20.57
2022-09-07T18:42:57.541Z,20.62
2022-09-07T18:46:08.507Z,20.75
2022-09-07T18:49:11.129Z,20.72
2022-09-07T18:55:36.267Z,20.46
2022-09-07T18:58:39.254Z,20.52
2022-09-07T19:01:41.889Z,20.41
2022-09-07T19:08:08.589Z,20.51
2022-09-07T19:11:13.495Z,20.56
2022-09-07T19:14:17.488Z,20.51
2022-09-07T19:17:20.380Z,20.42
2022-09-07T19:20:23.002Z,20.33
2022-09-07T19:23:25.701Z,20.21
2022-09-07T19:26:30.205Z,20.12
2022-09-07T19:29:33.157Z,19.96
2022-09-07T19:32:35.690Z,19.93
2022-09-07T19:35:38.527Z,19.92
2022-09-07T19:38:41.088Z,19.89
2022-09-07T19:41:45.238Z,19.85
2022-09-07T19:44:48.017Z,19.86
2022-09-07T19:47:50.738Z,19.78
2022-09-07T19:50:53.500Z,19.68
2022-09-07T19:53:56.225Z,19.63
2022-09-07T19:56:58.817Z,19.51
2022-09-07T20:00:01.692Z,19.40
2022-09-07T20:03:14.190Z,19.45
2022-09-07T20:06:18.292Z,19.43
2022-09-07T20:09:20.749Z,19.46
2022-09-07T20:12:23.475Z,19.41
2022-09-07T20:15:26.302Z,19.40
2022-09-07T20:18:29.036Z,19.38
2022-09-07T20:21:31.499Z,19.36
2022-09-07T20:24:35.230Z,19.32
2022-09-07T20:27:37.635Z,19.34
2022-09-07T20:30:44.077Z,19.31
2022-09-07T20:33:47.854Z,19.24
2022-09-07T20:36:50.966Z,19.20
2022-09-07T20:39:53.436Z,19.11
2022-09-07T20:42:56.225Z,19.06
2022-09-07T20:45:59.673Z,19.02
2022-09-07T20:49:02.396Z,19.08
2022-09-07T20:52:04.837Z,19.07
2022-09-07T20:55:07.993Z,19.03
2022-09-07T20:58:10.540Z,18.96
2022-09-07T21:01:15.205Z,18.97
2022-09-07T21:04:17.803Z,18.92
2022-09-07T21:07:20.485Z,18.85
2022-09-07T21:10:22.900Z,18.79
2022-09-07T21:13:25.591Z,18.72
2022-09-07T21:16:28.845Z,18.70
2022-09-07T21:19:31.596Z,18.65
2022-09-07T21:22:34.091Z,18.59
2022-09-07T21:25:44.039Z,18.59
2022-09-07T21:28:46.480Z,18.56
2022-09-07T21:31:49.653Z,18.60
2022-09-07T21:34:52.119Z,18.56
2022-09-07T21:37:54.811Z,18.57
2022-09-07T21:40:57.251Z,18.50
2022-09-07T21:44:01.943Z,18.50
2022-09-07T21:47:04.571Z,18.44
2022-09-07T21:50:07.774Z,18.40
2022-09-07T21:53:10.874Z,18.33
2022-09-07T21:56:14.373Z,18.35
2022-09-07T21:59:16.873Z,18.28
2022-09-07T22:02:19.673Z,18.25
2022-09-07T22:05:22.408Z,18.25
2022-09-07T22:08:24.815Z,18.16
2022-09-07T22:11:29.115Z,18.16
2022-09-07T22:14:31.612Z,18.06
2022-09-07T22:17:34.513Z,18.00
2022-09-07T22:20:36.959Z,17.92
2022-09-07T22:23:42.675Z,17.84
2022-09-07T22:26:46.397Z,17.78
2022-09-07T22:29:49.102Z,17.77
2022-09-07T22:32:51.858Z,17.73
2022-09-07T22:35:54.535Z,17.68
2022-09-07T22:38:59.297Z,17.68
2022-09-07T22:42:01.981Z,17.65
2022-09-07T22:45:05.885Z,17.57
2022-09-07T22:48:08.734Z,17.50
2022-09-07T22:51:11.714Z,17.42
2022-09-07T22:54:14.449Z,17.42
2022-09-07T22:57:16.928Z,17.40
2022-09-07T23:00:20.073Z,17.35
2022-09-07T23:03:22.539Z,17.46
2022-09-07T23:06:30.660Z,17.45
2022-09-07T23:09:33.156Z,17.49
2022-09-07T23:12:35.888Z,17.50
2022-09-07T23:15:38.806Z,17.50
2022-09-07T23:18:41.645Z,17.47
2022-09-07T23:21:44.119Z,17.49
2022-09-07T23:24:46.847Z,17.36
2022-09-07T23:27:49.281Z,17.33
2022-09-07T23:30:52.013Z,17.41
2022-09-07T23:33:55.666Z,17.34
2022-09-07T23:36:58.377Z,17.29
2022-09-07T23:40:00.855Z,17.28
2022-09-07T23:43:03.570Z,17.28
2022-09-07T23:46:06.129Z,17.30
2022-09-07T23:49:08.916Z,17.32
2022-09-07T23:52:11.309Z,17.32
2022-09-07T23:55:13.999Z,17.30
2022-09-07T23:58:16.570Z,17.33
